Time;durP1;ratioP1;P1;durP2;ratioP2;P2;SDS_P1;SDS_P2;PMS_P1;PMS_P2;Temp;Humidity;BMP_temperature;BMP_pressure;BME280_temperature;BME280_humidity;BME280_pressure;Samples;Min_cycle;Max_cycle;Signal;HPM_P1;HPM_P2
2022/04/23 00:00:59;;;;;;;;;;;;;;;;;;5073521;28;19917;-88
2022/04/23 00:03:25;;;;;;;;;;;;;;;;;;5073341;28;20361;-86
2022/04/23 00:05:50;;;;;;;;;;;;;;;;;;5073335;28;20562;-87
2022/04/23 00:08:15;;;;;;;;;;;;;;;;;;5072554;28;19920;-88
2022/04/23 00:10:41;;;;;;;;;;;;;;;;;;5073049;28;19923;-89
2022/04/23 00:13:06;;;;;;;;;;;;;;;;;;5072824;28;19966;-87
2022/04/23 00:15:37;;;;;;;;;;;;;;;;;;5073954;28;20357;-87
2022/04/23 00:18:07;;;;;;;;;;;;;;;;;;5071771;28;19921;-88
2022/04/23 00:20:33;;;;;;;;;;;;;;;;;;5073808;28;19966;-87
2022/04/23 00:22:59;;;;;;;;;;;;;;;;;;5073878;28;19924;-88
2022/04/23 00:25:25;;;;;;;;;;;;;;;;;;5071821;28;19939;-88
2022/04/23 00:27:50;;;;;;;;;;;;;;;;;;5072436;28;20355;-88
2022/04/23 00:30:16;;;;;;;;;;;;;;;;;;5071440;28;19959;-87
2022/04/23 00:32:41;;;;;;;;;;;;;;;;;;5072733;28;20400;-87
2022/04/23 00:35:07;;;;;;;;;;;;;;;;;;5071683;28;19923;-88
2022/04/23 00:37:33;;;;;;;;;;;;;;;;;;5072238;28;19923;-87
2022/04/23 00:39:59;;;;;;;;;;;;;;;;;;5072132;28;19920;-87
2022/04/23 00:42:24;;;;;;;;;;;;;;;;;;5063615;28;19924;-89
2022/04/23 00:44:50;;;;;;;;;;;;;;;;;;5069163;28;19999;-87
2022/04/23 00:47:15;;;;;;;;;;;;;;;;;;5069552;28;19917;-89
2022/04/23 00:49:41;;;;;;;;;;;;;;;;;;5070532;28;19923;-87
2022/04/23 00:52:07;;;;;;;;;;;;;;;;;;5071108;28;19970;-87
2022/04/23 00:54:33;;;;;;;;;;;;;;;;;;5070629;28;19923;-87
2022/04/23 00:56:58;;;;;;;;;;;;;;;;;;5076772;28;19923;-88
2022/04/23 00:59:25;;;;;;;;;;;;;;;;;;5072240;28;20280;-88
2022/04/23 01:01:53;;;;;;;;;;;;;;;;;;5070509;28;19982;-87
2022/04/23 01:04:18;;;;;;;;;;;;;;;;;;5072581;28;20003;-88
2022/04/23 01:06:44;;;;;;;;;;;;;;;;;;5068753;28;20357;-89
2022/04/23 01:09:10;;;;;;;;;;;;;;;;;;5068941;28;19924;-88
2022/04/23 01:11:36;;;;;;;;;;;;;;;;;;5070341;28;19942;-89
2022/04/23 01:14:02;;;;;;;;;;;;;;;;;;5069750;28;19917;-89
2022/04/23 01:16:28;;;;;;;;;;;;;;;;;;5068612;28;19940;-89
2022/04/23 01:18:54;;;;;;;;;;;;;;;;;;5072355;28;20280;-89
2022/04/23 01:21:19;;;;;;;;;;;;;;;;;;5073342;28;19921;-88
2022/04/23 01:23:46;;;;;;;;;;;;;;;;;;5065905;28;19924;-89
2022/04/23 01:26:14;;;;;;;;;;;;;;;;;;5067683;28;19916;-89
2022/04/23 01:28:40;;;;;;;;;;;;;;;;;;5070252;28;20002;-89
2022/04/23 01:31:07;;;;;;;;;;;;;;;;;;5069747;28;20003;-89
2022/04/23 01:33:35;;;;;;;;;;;;;;;;;;5071840;28;20041;-89
2022/04/23 01:36:02;;;;;;;;;;;;;;;;;;5070229;28;19952;-90
2022/04/23 01:38:27;;;;;;;;;;;;;;;;;;5070629;28;20279;-89
2022/04/23 01:40:53;;;;;;;;;;;;;;;;;;5070193;28;19917;-90
2022/04/23 01:43:18;;;;;;;;;;;;;;;;;;5071606;28;20219;-88
2022/04/23 01:45:44;;;;;;;;;;;;;;;;;;5066933;28;19952;-88
2022/04/23 01:48:09;;;;;;;;;;;;;;;;;;5075451;28;19924;-88
2022/04/23 01:50:35;;;;;;;;;;;;;;;;;;5075664;28;19970;-85
2022/04/23 01:53:02;;;;;;;;;;;;;;;;;;5076122;28;19916;-86
2022/04/23 01:55:27;;;;;;;;;;;;;;;;;;5073791;28;19924;-86
2022/04/23 01:57:53;;;;;;;;;;;;;;;;;;5067403;28;20577;-85
2022/04/23 02:00:18;;;;;;;;;;;;;;;;;;5075826;28;20299;-84
2022/04/23 02:02:44;;;;;;;;;;;;;;;;;;5076210;28;20356;-85
2022/04/23 02:05:10;;;;;;;;;;;;;;;;;;5076440;28;20372;-85
2022/04/23 02:07:37;;;;;;;;;;;;;;;;;;5074619;28;20280;-88
2022/04/23 02:10:03;;;;;;;;;;;;;;;;;;5056586;28;20346;-87
2022/04/23 02:12:28;;;;;;;;;;;;;;;;;;5076033;28;19923;-89
2022/04/23 02:14:54;;;;;;;;;;;;;;;;;;5074079;28;20285;-89
2022/04/23 02:17:19;;;;;;;;;;;;;;;;;;5075493;28;20399;-89
2022/04/23 02:19:44;;;;;;;;;;;;;;;;;;5075312;28;19917;-90
2022/04/23 02:22:10;;;;;;;;;;;;;;;;;;5074473;28;20357;-87
2022/04/23 02:24:36;;;;;;;;;;;;;;;;;;5074530;28;19916;-89
2022/04/23 02:27:02;;;;;;;;;;;;;;;;;;5075339;28;19917;-88
2022/04/23 02:29:27;;;;;;;;;;;;;;;;;;5074101;28;19917;-88
2022/04/23 02:31:53;;;;;;;;;;;;;;;;;;5072223;28;20381;-89
2022/04/23 02:34:21;;;;;;;;;;;;;;;;;;5071226;28;19924;-88
2022/04/23 02:36:47;;;;;;;;;;;;;;;;;;5072129;28;19931;-88
2022/04/23 02:39:13;;;;;;;;;;;;;;;;;;5071827;28;19952;-88
2022/04/23 02:41:38;;;;;;;;;;;;;;;;;;5074533;28;19970;-88
2022/04/23 02:44:04;;;;;;;;;;;;;;;;;;5086495;28;19923;-87
2022/04/23 02:46:30;;;;;;;;;;;;;;;;;;5073720;28;19967;-87
2022/04/23 02:48:57;;;;;;;;;;;;;;;;;;5075462;28;19952;-88
2022/04/23 02:51:22;;;;;;;;;;;;;;;;;;5073994;28;19916;-88
2022/04/23 02:53:48;;;;;;;;;;;;;;;;;;5075077;28;19923;-89
2022/04/23 02:56:16;;;;;;;;;;;;;;;;;;5066303;28;20409;-89
2022/04/23 02:58:42;;;;;;;;;;;;;;;;;;5074480;28;19921;-88
2022/04/23 03:01:10;;;;;;;;;;;;;;;;;;5074320;28;19917;-87
2022/04/23 03:03:37;;;;;;;;;;;;;;;;;;5072533;28;19916;-88
2022/04/23 03:06:05;;;;;;;;;;;;;;;;;;5075272;28;19916;-89
2022/04/23 03:08:30;;;;;;;;;;;;;;;;;;5074997;28;19927;-89
2022/04/23 03:10:56;;;;;;;;;;;;;;;;;;5074487;28;19921;-88
2022/04/23 03:13:23;;;;;;;;;;;;;;;;;;5073803;28;19919;-89
2022/04/23 03:15:49;;;;;;;;;;;;;;;;;;5073028;28;19979;-88
2022/04/23 03:18:15;;;;;;;;;;;;;;;;;;5073789;28;20007;-89
2022/04/23 03:20:43;;;;;;;;;;;;;;;;;;5074056;28;20418;-87
2022/04/23 03:23:09;;;;;;;;;;;;;;;;;;5073637;28;20050;-89
2022/04/23 03:25:35;;;;;;;;;;;;;;;;;;5074812;28;19917;-90
2022/04/23 03:28:01;;;;;;;;;;;;;;;;;;5074791;28;19924;-90
2022/04/23 03:30:27;;;;;;;;;;;;;;;;;;5073528;28;20425;-88
2022/04/23 03:32:53;;;;;;;;;;;;;;;;;;5073935;28;19920;-89
2022/04/23 03:35:19;;;;;;;;;;;;;;;;;;5073393;28;19925;-87
2022/04/23 03:37:44;;;;;;;;;;;;;;;;;;5072112;28;19916;-88
2022/04/23 03:40:10;;;;;;;;;;;;;;;;;;5074401;28;19916;-87
2022/04/23 03:42:36;;;;;;;;;;;;;;;;;;5074452;28;19917;-89
2022/04/23 03:45:02;;;;;;;;;;;;;;;;;;5073261;28;19923;-89
2022/04/23 03:47:28;;;;;;;;;;;;;;;;;;5073418;28;20377;-89
2022/04/23 03:49:53;;;;;;;;;;;;;;;;;;5073007;28;19975;-88
2022/04/23 03:52:19;;;;;;;;;;;;;;;;;;5073671;28;20438;-88
2022/04/23 03:54:46;;;;;;;;;;;;;;;;;;5076602;28;20011;-88
2022/04/23 03:57:12;;;;;;;;;;;;;;;;;;5073928;28;19917;-89
2022/04/23 03:59:37;;;;;;;;;;;;;;;;;;5072742;28;20023;-89
2022/04/23 04:02:04;;;;;;;;;;;;;;;;;;5074170;28;19924;-88
2022/04/23 04:04:31;;;;;;;;;;;;;;;;;;5072764;28;20303;-88
2022/04/23 04:06:56;;;;;;;;;;;;;;;;;;5071228;28;19925;-89
2022/04/23 04:09:22;;;;;;;;;;;;;;;;;;5072769;28;20295;-89
2022/04/23 04:12:02;;;;;;;;;;;;;;;;;;5083305;28;19923;-89
2022/04/23 04:14:30;;;;;;;;;;;;;;;;;;5064124;28;19939;-88
2022/04/23 04:16:55;;;;;;;;;;;;;;;;;;5071602;28;19932;-88
2022/04/23 04:19:21;;;;;;;;;;;;;;;;;;5072965;28;19917;-90
2022/04/23 04:21:47;;;;;;;;;;;;;;;;;;5071775;28;19917;-89
2022/04/23 04:24:16;;;;;;;;;;;;;;;;;;5073949;28;19917;-89
2022/04/23 04:26:43;;;;;;;;;;;;;;;;;;5088750;28;19916;-89
2022/04/23 04:29:09;;;;;;;;;;;;;;;;;;5069937;28;19917;-89
2022/04/23 04:31:48;;;;;;;;;;;;;;;;;;5069430;28;19924;-88
2022/04/23 04:34:17;;;;;;;;;;;;;;;;;;5068596;28;19923;-90
2022/04/23 04:36:43;;;;;;;;;;;;;;;;;;5068645;28;19923;-89
2022/04/23 04:39:09;;;;;;;;;;;;;;;;;;5071220;28;19916;-88
2022/04/23 04:41:35;;;;;;;;;;;;;;;;;;5070549;28;19923;-89
2022/04/23 04:44:04;;;;;;;;;;;;;;;;;;5072345;28;19923;-89
2022/04/23 04:46:30;;;;;;;;;;;;;;;;;;5067868;28;19967;-88
2022/04/23 04:48:55;;;;;;;;;;;;;;;;;;5070800;28;19967;-88
2022/04/23 04:51:21;;;;;;;;;;;;;;;;;;5072369;28;19962;-88
2022/04/23 04:53:46;;;;;;;;;;;;;;;;;;5063692;28;20291;-88
2022/04/23 04:56:12;;;;;;;;;;;;;;;;;;5056885;28;20436;-88
2022/04/23 04:58:37;;;;;;;;;;;;;;;;;;5061052;28;20019;-88
2022/04/23 05:01:03;;;;;;;;;;;;;;;;;;5073043;28;20360;-88
2022/04/23 05:03:29;;;;;;;;;;;;;;;;;;5073448;28;19923;-89
2022/04/23 05:05:54;;;;;;;;;;;;;;;;;;5070619;28;20454;-87
2022/04/23 05:08:20;;;;;;;;;;;;;;;;;;5076445;28;19928;-90
2022/04/23 05:10:46;;;;;;;;;;;;;;;;;;5071551;28;19923;-88
2022/04/23 05:13:11;;;;;;;;;;;;;;;;;;5070229;28;19913;-88
2022/04/23 05:15:37;;;;;;;;;;;;;;;;;;5070460;28;19965;-88
2022/04/23 05:18:03;;;;;;;;;;;;;;;;;;5072687;28;19931;-89
2022/04/23 05:20:28;;;;;;;;;;;;;;;;;;5073284;28;20466;-90
2022/04/23 05:22:54;;;;;;;;;;;;;;;;;;5074680;28;20292;-87
2022/04/23 05:25:19;;;;;;;;;;;;;;;;;;5076923;28;19965;-90
2022/04/23 05:27:45;;;;;;;;;;;;;;;;;;5075463;28;19916;-90
2022/04/23 05:30:10;;;;;;;;;;;;;;;;;;5074716;28;19928;-89
2022/04/23 05:32:36;;;;;;;;;;;;;;;;;;5077089;28;19917;-89
2022/04/23 05:35:01;;;;;;;;;;;;;;;;;;5076235;28;19970;-88
2022/04/23 05:37:27;;;;;;;;;;;;;;;;;;5074986;28;19932;-87
2022/04/23 05:39:52;;;;;;;;;;;;;;;;;;5076647;28;19916;-87
2022/04/23 05:42:17;;;;;;;;;;;;;;;;;;5076811;28;19917;-86
2022/04/23 05:44:43;;;;;;;;;;;;;;;;;;5075977;28;20015;-86
2022/04/23 05:47:08;;;;;;;;;;;;;;;;;;5076629;28;19968;-87
2022/04/23 05:49:37;;;;;;;;;;;;;;;;;;5075225;28;19923;-88
2022/04/23 05:52:02;;;;;;;;;;;;;;;;;;5056615;28;20318;-87
2022/04/23 05:54:28;;;;;;;;;;;;;;;;;;5056651;28;19917;-88
2022/04/23 05:56:53;;;;;;;;;;;;;;;;;;5056641;28;19917;-87
2022/04/23 05:59:19;;;;;;;;;;;;;;;;;;5066009;28;19924;-88
2022/04/23 06:01:44;;;;;;;;;;;;;;;;;;5069060;28;19916;-86
2022/04/23 06:04:09;;;;;;;;;;;;;;;;;;5075027;28;19970;-87
2022/04/23 06:06:35;;;;;;;;;;;;;;;;;;5074491;28;19962;-85
2022/04/23 06:09:00;;;;;;;;;;;;;;;;;;5074654;28;19920;-88
2022/04/23 06:11:26;;;;;;;;;;;;;;;;;;5074844;28;19924;-86
2022/04/23 06:13:51;;;;;;;;;;;;;;;;;;5074338;28;19955;-88
2022/04/23 06:16:16;;;;;;;;;;;;;;;;;;5076203;28;19924;-87
2022/04/23 06:18:42;;;;;;;;;;;;;;;;;;5074147;28;19916;-88
2022/04/23 06:21:08;;;;;;;;;;;;;;;;;;5073396;28;19923;-88
2022/04/23 06:23:33;;;;;;;;;;;;;;;;;;5073841;28;19916;-88
2022/04/23 06:25:59;;;;;;;;;;;;;;;;;;5074652;28;20403;-88
2022/04/23 06:28:24;;;;;;;;;;;;;;;;;;5074634;28;19913;-87
2022/04/23 06:30:50;;;;;;;;;;;;;;;;;;5073835;28;20325;-86
2022/04/23 06:33:15;;;;;;;;;;;;;;;;;;5073626;28;20292;-86
2022/04/23 06:35:40;;;;;;;;;;;;;;;;;;5071916;28;20005;-86
2022/04/23 06:38:06;;;;;;;;;;;;;;;;;;5070980;28;19923;-87
2022/04/23 06:40:32;;;;;;;;;;;;;;;;;;5075553;28;19913;-87
2022/04/23 06:42:57;;;;;;;;;;;;;;;;;;5075823;28;19958;-86
2022/04/23 06:45:23;;;;;;;;;;;;;;;;;;5075746;28;19924;-85
2022/04/23 06:47:56;;;;;;;;;;;;;;;;;;5075628;28;20285;-85
2022/04/23 06:50:22;;;;;;;;;;;;;;;;;;5075744;28;19967;-86
2022/04/23 06:52:47;;;;;;;;;;;;;;;;;;5075569;28;19944;-85
2022/04/23 06:55:13;;;;;;;;;;;;;;;;;;5075710;28;19962;-85
2022/04/23 06:57:42;;;;;;;;;;;;;;;;;;5074301;28;19923;-85
2022/04/23 07:00:11;;;;;;;;;;;;;;;;;;5075358;28;19912;-86
2022/04/23 07:02:36;;;;;;;;;;;;;;;;;;5075339;28;19917;-86
2022/04/23 07:05:02;;;;;;;;;;;;;;;;;;5075194;28;19971;-87
2022/04/23 07:07:27;;;;;;;;;;;;;;;;;;5073803;28;19921;-87
2022/04/23 07:09:53;;;;;;;;;;;;;;;;;;5075058;28;19964;-85
2022/04/23 07:12:18;;;;;;;;;;;;;;;;;;5075313;28;20340;-85
2022/04/23 07:14:44;;;;;;;;;;;;;;;;;;5074280;28;20391;-87
2022/04/23 07:17:10;;;;;;;;;;;;;;;;;;5064863;28;19917;-87
2022/04/23 07:19:39;;;;;;;;;;;;;;;;;;5054287;28;19921;-89
2022/04/23 07:22:05;;;;;;;;;;;;;;;;;;5055131;28;19944;-90
2022/04/23 07:24:30;;;;;;;;;;;;;;;;;;5065029;28;20357;-87
2022/04/23 07:26:59;;;;;;;;;;;;;;;;;;5065034;28;19924;-89
2022/04/23 07:29:24;;;;;;;;;;;;;;;;;;5064074;28;19974;-86
2022/04/23 07:31:50;;;;;;;;;;;;;;;;;;5066542;28;20033;-88
2022/04/23 07:39:44;;;;;;;;;;;;;;;;;;5074083;28;19962;-86
2022/04/23 07:42:10;;;;;;;;;;;;;;;;;;5073515;28;19924;-77
2022/04/23 07:44:36;;;;;;;;;;;;;;;;;;5074423;28;19923;-79
2022/04/23 07:47:04;;;;;;;;;;;;;;;;;;5073014;28;20272;-83
2022/04/23 07:49:30;;;;;;;;;;;;;;;;;;5074246;28;19925;-88
2022/04/23 07:51:55;;;;;;;;;;;;;;;;;;5074313;28;19927;-80
2022/04/23 07:54:21;;;;;;;;;;;;;;;;;;5072777;28;19920;-82
2022/04/23 07:56:47;;;;;;;;;;;;;;;;;;5073277;28;20487;-82
2022/04/23 07:59:12;;;;;;;;;;;;;;;;;;5073223;28;19916;-81
2022/04/23 08:01:38;;;;;;;;;;;;;;;;;;5070848;28;19924;-80
2022/04/23 08:04:04;;;;;;;;;;;;;;;;;;5074065;28;20007;-80
2022/04/23 08:06:30;;;;;;;;;;;;;;;;;;5073554;28;19974;-81
2022/04/23 08:08:56;;;;;;;;;;;;;;;;;;5073991;28;19925;-79
2022/04/23 08:11:24;;;;;;;;;;;;;;;;;;5073999;28;19916;-81
2022/04/23 08:13:50;;;;;;;;;;;;;;;;;;5073922;28;19921;-80
2022/04/23 08:16:15;;;;;;;;;;;;;;;;;;5074012;28;19920;-82
2022/04/23 08:18:41;;;;;;;;;;;;;;;;;;5073829;28;20335;-82
2022/04/23 08:21:06;;;;;;;;;;;;;;;;;;5073851;28;19917;-80
2022/04/23 08:23:33;;;;;;;;;;;;;;;;;;5073766;28;19916;-79
2022/04/23 08:26:00;;;;;;;;;;;;;;;;;;5073763;28;19924;-77
2022/04/23 08:31:11;;;;;;;;;;;;;;;;;;5074412;28;19927;-77
2022/04/23 08:36:22;;;;;;;;;;;;;;;;;;5073812;28;19923;-78
2022/04/23 08:38:47;;;;;;;;;;;;;;;;;;5073468;28;20003;-79
2022/04/23 08:41:13;;;;;;;;;;;;;;;;;;5073628;28;20013;-83
2022/04/23 08:43:41;;;;;;;;;;;;;;;;;;5073541;28;19916;-79
2022/04/23 08:46:06;;;;;;;;;;;;;;;;;;5073570;28;19916;-77
2022/04/23 08:48:36;;;;;;;;;;;;;;;;;;5060130;28;19917;-78
2022/04/23 08:51:03;;;;;;;;;;;;;;;;;;5057470;28;20018;-79
2022/04/23 08:53:31;;;;;;;;;;;;;;;;;;5059499;28;20000;-83
2022/04/23 08:55:57;;;;;;;;;;;;;;;;;;5063155;28;19931;-77
2022/04/23 08:58:23;;;;;;;;;;;;;;;;;;5062835;28;19920;-79
2022/04/23 09:00:49;;;;;;;;;;;;;;;;;;5071905;28;19916;-80
2022/04/23 09:03:15;;;;;;;;;;;;;;;;;;5073420;28;20347;-79
2022/04/23 09:05:43;;;;;;;;;;;;;;;;;;5073258;28;20257;-79
2022/04/23 09:08:08;;;;;;;;;;;;;;;;;;5073152;28;19921;-79
2022/04/23 09:10:47;;;;;;;;;;;;;;;;;;5073168;28;19962;-78
2022/04/23 09:13:29;;;;;;;;;;;;;;;;;;5073290;28;20331;-78
2022/04/23 09:24:43;;;;;;;;;;;;;;;;;;5073204;28;19924;-80
2022/04/23 09:27:09;;;;;;;;;;;;;;;;;;5071986;28;19916;-78
2022/04/23 09:29:34;;;;;;;;;;;;;;;;;;5073172;28;19917;-78
2022/04/23 09:32:10;;;;;;;;;;;;;;;;;;5071627;28;19920;-78
2022/04/23 09:34:35;;;;;;;;;;;;;;;;;;5070737;28;19916;-78
2022/04/23 09:37:01;;;;;;;;;;;;;;;;;;5071735;28;19924;-78
2022/04/23 09:39:38;;;;;;;;;;;;;;;;;;5070775;28;19920;-78
2022/04/23 09:42:13;;;;;;;;;;;;;;;;;;5072624;28;19923;-77
2022/04/23 09:44:38;;;;;;;;;;;;;;;;;;5072562;28;20007;-82
2022/04/23 09:47:04;;;;;;;;;;;;;;;;;;5072587;28;20424;-78
2022/04/23 09:49:30;;;;;;;;;;;;;;;;;;5073073;28;19921;-78
2022/04/23 09:52:05;;;;;;;;;;;;;;;;;;5071475;28;19916;-77
2022/04/23 09:54:31;;;;;;;;;;;;;;;;;;5072881;28;19916;-78
2022/04/23 09:56:57;;;;;;;;;;;;;;;;;;5072839;28;19928;-80
2022/04/23 09:59:23;;;;;;;;;;;;;;;;;;5071147;28;19916;-78
2022/04/23 10:01:49;;;;;;;;;;;;;;;;;;5073125;28;19916;-77
2022/04/23 10:04:17;;;;;;;;;;;;;;;;;;5076414;28;19916;-77
2022/04/23 10:06:45;;;;;;;;;;;;;;;;;;5075495;28;19924;-76
2022/04/23 10:09:11;;;;;;;;;;;;;;;;;;5076480;28;19967;-83
2022/04/23 10:11:38;;;;;;;;;;;;;;;;;;5076370;28;19969;-80
2022/04/23 10:14:06;;;;;;;;;;;;;;;;;;5076292;28;20368;-76
2022/04/23 10:16:32;;;;;;;;;;;;;;;;;;5068760;28;19924;-79
2022/04/23 10:18:58;;;;;;;;;;;;;;;;;;5062221;28;20376;-82
2022/04/23 10:21:30;;;;;;;;;;;;;;;;;;5074050;28;19921;-79
2022/04/23 10:24:07;;;;;;;;;;;;;;;;;;5068307;28;19921;-78
2022/04/23 10:26:54;;;;;;;;;;;;;;;;;;5066729;28;19931;-87
2022/04/23 10:29:21;;;;;;;;;;;;;;;;;;5068256;28;19920;-80
2022/04/23 10:32:05;;;;;;;;;;;;;;;;;;5069686;28;20397;-89
2022/04/23 10:34:31;;;;;;;;;;;;;;;;;;5069435;28;19923;-88
2022/04/23 10:37:29;;;;;;;;;;;;;;;;;;5070591;28;19999;-89
2022/04/23 10:39:55;;;;;;;;;;;;;;;;;;5061519;28;19956;-87
2022/04/23 10:42:21;;;;;;;;;;;;;;;;;;5071659;28;19968;-87
2022/04/23 10:44:47;;;;;;;;;;;;;;;;;;5068877;28;19917;-88
2022/04/23 10:47:16;;;;;;;;;;;;;;;;;;5069006;28;20011;-89
2022/04/23 10:49:41;;;;;;;;;;;;;;;;;;5073216;28;20384;-87
2022/04/23 10:52:07;;;;;;;;;;;;;;;;;;5069119;28;19963;-86
2022/04/23 10:54:45;;;;;;;;;;;;;;;;;;5067657;28;19920;-87
2022/04/23 10:57:11;;;;;;;;;;;;;;;;;;5085676;28;19920;-85
2022/04/23 10:59:42;;;;;;;;;;;;;;;;;;5070252;28;19917;-82
2022/04/23 11:02:19;;;;;;;;;;;;;;;;;;5067695;28;19916;-82
2022/04/23 11:13:42;;;;;;;;;;;;;;;;;;5069878;28;19970;-91
2022/04/23 11:16:16;;;;;;;;;;;;;;;;;;5068902;28;20015;-81
2022/04/23 11:18:42;;;;;;;;;;;;;;;;;;5071723;28;19916;-85
2022/04/23 11:21:11;;;;;;;;;;;;;;;;;;5069768;28;19999;-84
2022/04/23 11:23:37;;;;;;;;;;;;;;;;;;5070670;28;19916;-78
2022/04/23 11:26:03;;;;;;;;;;;;;;;;;;5067874;28;20304;-85
2022/04/23 11:28:29;;;;;;;;;;;;;;;;;;5069059;28;19917;-85
2022/04/23 11:30:57;;;;;;;;;;;;;;;;;;5070295;28;19917;-90
2022/04/23 11:33:22;;;;;;;;;;;;;;;;;;5071052;28;19912;-86
2022/04/23 11:35:48;;;;;;;;;;;;;;;;;;5070068;28;20464;-82
2022/04/23 11:38:18;;;;;;;;;;;;;;;;;;5071627;28;19991;-91
2022/04/23 11:40:43;;;;;;;;;;;;;;;;;;5073709;28;19962;-91
2022/04/23 11:43:08;;;;;;;;;;;;;;;;;;5070300;28;20369;-88
2022/04/23 11:45:44;;;;;;;;;;;;;;;;;;5067312;28;19939;-87
2022/04/23 11:48:11;;;;;;;;;;;;;;;;;;5069772;28;19920;-87
2022/04/23 11:50:36;;;;;;;;;;;;;;;;;;5069844;28;20364;-89
2022/04/23 11:53:03;;;;;;;;;;;;;;;;;;5073272;28;19923;-90
2022/04/23 11:55:30;;;;;;;;;;;;;;;;;;5072276;28;20193;-88
2022/04/23 11:57:59;;;;;;;;;;;;;;;;;;5070131;28;20294;-89
2022/04/23 12:00:25;;;;;;;;;;;;;;;;;;5075868;28;19920;-89
2022/04/23 12:02:51;;;;;;;;;;;;;;;;;;5068575;28;20335;-87
2022/04/23 12:05:23;;;;;;;;;;;;;;;;;;5072227;28;19916;-89
2022/04/23 12:07:48;;;;;;;;;;;;;;;;;;5070754;28;19920;-93
2022/04/23 12:10:14;;;;;;;;;;;;;;;;;;5071190;28;19977;-91
2022/04/23 12:12:40;;;;;;;;;;;;;;;;;;5068196;28;19968;-91
2022/04/23 12:15:09;;;;;;;;;;;;;;;;;;5072699;28;19917;-88
2022/04/23 12:18:07;;;;;;;;;;;;;;;;;;5070966;28;19985;-86
2022/04/23 12:20:35;;;;;;;;;;;;;;;;;;5034781;28;19961;-86
2022/04/23 12:23:01;;;;;;;;;;;;;;;;;;5060798;28;19920;-87
2022/04/23 12:25:28;;;;;;;;;;;;;;;;;;5058884;28;19916;-88
2022/04/23 12:27:59;;;;;;;;;;;;;;;;;;5065828;28;20387;-90
2022/04/23 12:41:56;;;;;;;;;;;;;;;;;;5075514;28;19923;-89
2022/04/23 12:44:23;;;;;;;;;;;;;;;;;;5075029;28;19917;-87
2022/04/23 12:46:52;;;;;;;;;;;;;;;;;;5080359;28;19916;-87
2022/04/23 12:49:18;;;;;;;;;;;;;;;;;;5075679;28;20285;-88
2022/04/23 12:51:50;;;;;;;;;;;;;;;;;;5076283;28;20014;-88
2022/04/23 12:54:16;;;;;;;;;;;;;;;;;;5075492;28;19917;-84
2022/04/23 12:56:41;;;;;;;;;;;;;;;;;;5074351;28;19917;-88
2022/04/23 12:59:07;;;;;;;;;;;;;;;;;;5073372;28;20007;-85
2022/04/23 13:01:32;;;;;;;;;;;;;;;;;;5071854;28;19917;-87
2022/04/23 13:04:00;;;;;;;;;;;;;;;;;;5072269;28;19921;-82
2022/04/23 13:09:09;;;;;;;;;;;;;;;;;;5072924;28;19927;-87
2022/04/23 13:11:35;;;;;;;;;;;;;;;;;;5075147;28;19916;-92
2022/04/23 13:14:03;;;;;;;;;;;;;;;;;;5073889;28;19921;-88
2022/04/23 13:16:29;;;;;;;;;;;;;;;;;;5072842;28;19923;-89
2022/04/23 13:18:55;;;;;;;;;;;;;;;;;;5052689;28;20397;-88
2022/04/23 13:21:22;;;;;;;;;;;;;;;;;;5052886;28;19916;-85
2022/04/23 13:23:49;;;;;;;;;;;;;;;;;;5069422;28;19962;-90
2022/04/23 13:26:15;;;;;;;;;;;;;;;;;;5068306;28;20340;-89
2022/04/23 13:28:40;;;;;;;;;;;;;;;;;;5053023;28;19917;-81
2022/04/23 13:31:06;;;;;;;;;;;;;;;;;;5053483;28;19917;-87
2022/04/23 13:33:31;;;;;;;;;;;;;;;;;;5053393;28;19923;-85
2022/04/23 13:35:56;;;;;;;;;;;;;;;;;;5054141;28;19921;-94
2022/04/23 13:38:22;;;;;;;;;;;;;;;;;;5056142;28;20383;-85
2022/04/23 13:40:48;;;;;;;;;;;;;;;;;;5057276;28;19917;-82
2022/04/23 13:43:13;;;;;;;;;;;;;;;;;;5057134;28;19917;-90
2022/04/23 13:45:39;;;;;;;;;;;;;;;;;;5057373;28;19966;-91
2022/04/23 13:48:09;;;;;;;;;;;;;;;;;;5058805;28;19917;-90
2022/04/23 13:50:34;;;;;;;;;;;;;;;;;;5074481;28;19916;-92
2022/04/23 13:53:00;;;;;;;;;;;;;;;;;;5077613;28;19916;-89
2022/04/23 13:55:25;;;;;;;;;;;;;;;;;;5077553;28;19921;-87
2022/04/23 13:57:52;;;;;;;;;;;;;;;;;;5077489;28;20340;-89
2022/04/23 14:00:18;;;;;;;;;;;;;;;;;;5077891;28;19916;-88
2022/04/23 14:10:55;;;;;;;;;;;;;;;;;;5078040;28;19923;-91
2022/04/23 14:13:21;;;;;;;;;;;;;;;;;;5076799;28;19912;-92
2022/04/23 14:15:47;;;;;;;;;;;;;;;;;;5079526;28;20356;-92
2022/04/23 14:18:13;;;;;;;;;;;;;;;;;;5077660;28;19912;-89
2022/04/23 14:20:39;;;;;;;;;;;;;;;;;;5077580;28;19916;-84
2022/04/23 14:23:04;;;;;;;;;;;;;;;;;;5077722;28;19970;-92
2022/04/23 14:25:30;;;;;;;;;;;;;;;;;;5076093;28;19920;-88
2022/04/23 14:27:55;;;;;;;;;;;;;;;;;;5074938;28;19968;-94
2022/04/23 14:30:21;;;;;;;;;;;;;;;;;;5076298;28;19917;-92
2022/04/23 14:32:46;;;;;;;;;;;;;;;;;;5075582;28;20003;-89
2022/04/23 14:35:11;;;;;;;;;;;;;;;;;;5077131;28;19966;-90
2022/04/23 14:37:37;;;;;;;;;;;;;;;;;;5077257;28;19916;-93
2022/04/23 14:40:03;;;;;;;;;;;;;;;;;;5075360;28;19917;-86
2022/04/23 14:42:29;;;;;;;;;;;;;;;;;;5074337;28;19963;-88
2022/04/23 14:44:55;;;;;;;;;;;;;;;;;;5073852;28;19969;-83
2022/04/23 14:47:20;;;;;;;;;;;;;;;;;;5071298;28;20385;-89
2022/04/23 14:49:46;;;;;;;;;;;;;;;;;;5072306;28;20336;-89
2022/04/23 14:54:55;;;;;;;;;;;;;;;;;;5073742;28;19963;-81
2022/04/23 14:57:21;;;;;;;;;;;;;;;;;;5075509;28;19925;-82
2022/04/23 14:59:46;;;;;;;;;;;;;;;;;;5073942;28;19916;-90
2022/04/23 15:02:12;;;;;;;;;;;;;;;;;;5075186;28;19916;-85
2022/04/23 15:04:37;;;;;;;;;;;;;;;;;;5075949;28;19916;-88
2022/04/23 15:07:02;;;;;;;;;;;;;;;;;;5072557;28;19920;-89
2022/04/23 15:09:28;;;;;;;;;;;;;;;;;;5074697;28;19963;-89
2022/04/23 15:11:54;;;;;;;;;;;;;;;;;;5075035;28;19912;-87
2022/04/23 15:14:19;;;;;;;;;;;;;;;;;;5074517;28;19964;-88
2022/04/23 15:16:45;;;;;;;;;;;;;;;;;;5073944;28;19962;-81
2022/04/23 15:19:10;;;;;;;;;;;;;;;;;;5075387;28;19917;-84
2022/04/23 15:21:36;;;;;;;;;;;;;;;;;;5074012;28;20003;-84
2022/04/23 15:24:01;;;;;;;;;;;;;;;;;;5071743;28;19963;-81
2022/04/23 15:26:27;;;;;;;;;;;;;;;;;;5071984;28;19917;-85
2022/04/23 15:28:52;;;;;;;;;;;;;;;;;;5074750;28;20301;-87
2022/04/23 15:31:18;;;;;;;;;;;;;;;;;;5075048;28;19923;-79
2022/04/23 15:33:43;;;;;;;;;;;;;;;;;;5069306;28;19916;-81
2022/04/23 15:36:09;;;;;;;;;;;;;;;;;;5069951;28;19916;-85
2022/04/23 15:38:34;;;;;;;;;;;;;;;;;;5071386;28;20007;-81
2022/04/23 15:41:00;;;;;;;;;;;;;;;;;;5074670;28;20023;-87
2022/04/23 15:43:25;;;;;;;;;;;;;;;;;;5071831;28;20305;-79
2022/04/23 15:45:51;;;;;;;;;;;;;;;;;;5071660;28;20003;-88
2022/04/23 15:48:17;;;;;;;;;;;;;;;;;;5066796;28;20450;-80
2022/04/23 15:50:50;;;;;;;;;;;;;;;;;;5074881;28;19924;-88
2022/04/23 15:53:16;;;;;;;;;;;;;;;;;;5070324;28;19916;-86
2022/04/23 15:55:42;;;;;;;;;;;;;;;;;;5074219;28;19939;-80
2022/04/23 15:58:07;;;;;;;;;;;;;;;;;;5074638;28;19916;-85
2022/04/23 16:00:33;;;;;;;;;;;;;;;;;;5074025;28;19917;-85
2022/04/23 16:05:42;;;;;;;;;;;;;;;;;;5075171;28;19969;-82
2022/04/23 16:08:12;;;;;;;;;;;;;;;;;;5071707;28;20101;-82
2022/04/23 16:10:37;;;;;;;;;;;;;;;;;;5073653;28;19920;-84
2022/04/23 16:13:03;;;;;;;;;;;;;;;;;;5073117;28;20386;-82
2022/04/23 16:15:28;;;;;;;;;;;;;;;;;;5073095;28;19921;-79
2022/04/23 16:17:54;;;;;;;;;;;;;;;;;;5073876;28;19917;-81
2022/04/23 16:20:20;;;;;;;;;;;;;;;;;;5074291;28;19923;-84
2022/04/23 16:22:45;;;;;;;;;;;;;;;;;;5073610;28;19917;-83
2022/04/23 16:25:10;;;;;;;;;;;;;;;;;;5074342;28;19923;-84
2022/04/23 16:27:37;;;;;;;;;;;;;;;;;;5074019;28;19924;-84
2022/04/23 16:30:02;;;;;;;;;;;;;;;;;;5073671;28;19923;-87
2022/04/23 16:32:28;;;;;;;;;;;;;;;;;;5069234;28;19967;-91
2022/04/23 16:34:54;;;;;;;;;;;;;;;;;;5055371;28;19956;-87
2022/04/23 16:48:15;;;;;;;;;;;;;;;;;;5073219;28;19919;-88
2022/04/23 16:50:41;;;;;;;;;;;;;;;;;;5072710;28;19916;-89
2022/04/23 16:53:07;;;;;;;;;;;;;;;;;;5073013;28;19956;-88
2022/04/23 16:55:32;;;;;;;;;;;;;;;;;;5071196;28;19923;-87
2022/04/23 16:57:58;;;;;;;;;;;;;;;;;;5070521;28;19919;-89
2022/04/23 17:00:23;;;;;;;;;;;;;;;;;;5071079;28;19948;-89
2022/04/23 17:02:48;;;;;;;;;;;;;;;;;;5071757;28;19969;-89
2022/04/23 17:05:14;;;;;;;;;;;;;;;;;;5068876;28;19961;-85
2022/04/23 17:07:39;;;;;;;;;;;;;;;;;;5072141;28;19985;-83
2022/04/23 17:10:05;;;;;;;;;;;;;;;;;;5070986;28;19928;-86
2022/04/23 17:12:32;;;;;;;;;;;;;;;;;;5072428;28;20458;-82
2022/04/23 17:14:58;;;;;;;;;;;;;;;;;;5075389;28;19917;-92
2022/04/23 17:17:23;;;;;;;;;;;;;;;;;;5072579;28;19927;-82
2022/04/23 17:19:49;;;;;;;;;;;;;;;;;;5072425;28;19916;-85
2022/04/23 17:22:15;;;;;;;;;;;;;;;;;;5073227;28;20379;-82
2022/04/23 17:24:40;;;;;;;;;;;;;;;;;;5071744;28;20427;-81
2022/04/23 17:27:06;;;;;;;;;;;;;;;;;;5068414;28;20081;-89
2022/04/23 17:29:31;;;;;;;;;;;;;;;;;;5066581;28;20023;-90
2022/04/23 17:31:57;;;;;;;;;;;;;;;;;;5073997;28;19917;-89
2022/04/23 17:34:23;;;;;;;;;;;;;;;;;;5074722;28;19928;-87
2022/04/23 17:36:49;;;;;;;;;;;;;;;;;;5073951;28;20283;-88
2022/04/23 17:39:14;;;;;;;;;;;;;;;;;;5076562;28;20006;-86
2022/04/23 17:41:40;;;;;;;;;;;;;;;;;;5071461;28;20059;-85
2022/04/23 17:44:07;;;;;;;;;;;;;;;;;;5070904;28;19917;-88
2022/04/23 17:46:32;;;;;;;;;;;;;;;;;;5079850;28;20015;-81
2022/04/23 17:48:58;;;;;;;;;;;;;;;;;;5071566;28;19999;-87